createdAt,value
2018-06-02T00:00:19.135Z,12.37
2018-06-02T00:02:47.456Z,11.65
2018-06-02T00:05:15.001Z,12.37
2018-06-02T00:07:42.571Z,11.45
2018-06-02T00:10:10.179Z,14.02
2018-06-02T00:12:37.763Z,11.05
2018-06-02T00:15:06.102Z,12.10
2018-06-02T00:17:33.646Z,11.35
2018-06-02T00:20:01.195Z,12.82
2018-06-02T00:22:28.776Z,12.27
2018-06-02T00:24:56.340Z,10.65
2018-06-02T00:27:23.891Z,13.18
2018-06-02T00:29:51.446Z,13.38
2018-06-02T00:32:19.014Z,14.48
2018-06-02T00:34:46.563Z,13.27
2018-06-02T00:37:14.125Z,14.95
2018-06-02T00:39:41.699Z,14.35
2018-06-02T00:42:09.240Z,14.70
2018-06-02T00:44:37.579Z,13.02
2018-06-02T00:47:05.130Z,13.90
2018-06-02T00:49:32.703Z,13.65
2018-06-02T00:52:00.274Z,14.13
2018-06-02T00:54:39.657Z,14.18
2018-06-02T00:57:07.995Z,13.27
2018-06-02T00:59:35.567Z,13.45
2018-06-02T01:02:03.155Z,13.27
2018-06-02T01:04:30.703Z,13.48
2018-06-02T01:06:58.265Z,13.32
2018-06-02T01:09:25.818Z,12.13
2018-06-02T01:11:53.356Z,11.82
2018-06-02T01:14:20.923Z,12.88
2018-06-02T01:16:48.457Z,10.75
2018-06-02T01:19:16.767Z,11.73
2018-06-02T01:21:44.322Z,9.57
2018-06-02T01:24:11.880Z,11.43
2018-06-02T01:26:39.470Z,11.32
2018-06-02T01:29:07.015Z,12.18
2018-06-02T01:31:34.665Z,11.18
2018-06-02T01:34:02.975Z,11.25
2018-06-02T01:36:30.515Z,11.15
2018-06-02T01:38:58.078Z,10.82
2018-06-02T01:41:25.641Z,8.88
2018-06-02T01:43:53.938Z,9.18
2018-06-02T01:46:21.527Z,9.73
2018-06-02T01:48:49.062Z,9.43
2018-06-02T01:51:16.612Z,11.23
2018-06-02T01:53:44.167Z,10.68
2018-06-02T01:56:12.498Z,10.60
2018-06-02T01:58:40.068Z,11.30
2018-06-02T02:01:07.662Z,10.70
2018-06-02T02:03:35.227Z,10.98
2018-06-02T02:06:02.795Z,9.63
2018-06-02T02:08:30.356Z,10.60
2018-06-02T02:10:57.894Z,9.13
2018-06-02T02:13:25.421Z,10.27
2018-06-02T02:15:52.994Z,10.43
2018-06-02T02:18:20.566Z,9.45
2018-06-02T02:20:48.116Z,10.57
2018-06-02T02:23:15.709Z,9.88
2018-06-02T02:25:43.278Z,9.48
2018-06-02T02:28:10.823Z,9.18
2018-06-02T02:30:38.365Z,8.93
2018-06-02T02:33:05.907Z,8.40
2018-06-02T02:35:34.240Z,8.52
2018-06-02T02:38:01.783Z,8.55
2018-06-02T02:40:29.345Z,8.90
2018-06-02T02:42:56.903Z,9.95
2018-06-02T02:45:24.493Z,9.65
2018-06-02T02:47:52.054Z,8.70
2018-06-02T02:50:19.590Z,10.10
2018-06-02T02:52:47.931Z,10.68
2018-06-02T02:55:15.487Z,10.82
2018-06-02T02:57:43.099Z,11.40
2018-06-02T03:00:10.645Z,11.30
2018-06-02T03:02:38.955Z,11.30
2018-06-02T03:05:06.515Z,9.98
2018-06-02T03:07:34.059Z,10.77
2018-06-02T03:10:02.381Z,9.68
2018-06-02T03:12:29.938Z,8.98
2018-06-02T03:14:57.503Z,10.10
2018-06-02T03:17:25.041Z,9.50
2018-06-02T03:19:53.335Z,10.05
2018-06-02T03:22:20.898Z,9.77
2018-06-02T03:24:48.451Z,10.45
2018-06-02T03:27:16.812Z,10.40
2018-06-02T03:29:44.386Z,10.20
2018-06-02T03:32:12.712Z,9.07
2018-06-02T03:34:40.275Z,10.60
2018-06-02T03:37:07.843Z,11.20
2018-06-02T03:39:35.387Z,9.57
2018-06-02T03:42:02.979Z,9.75
2018-06-02T03:44:30.523Z,9.32
2018-06-02T03:46:58.090Z,9.55
2018-06-02T03:49:25.639Z,9.10
2018-06-02T03:51:53.199Z,8.10
2018-06-02T03:54:20.794Z,8.52
2018-06-02T03:56:48.361Z,9.15
2018-06-02T03:59:15.922Z,8.57
2018-06-02T04:01:44.230Z,9.20
2018-06-02T04:04:11.804Z,9.07
2018-06-02T04:06:39.378Z,9.75
2018-06-02T04:09:07.691Z,8.98
2018-06-02T04:11:35.220Z,11.35
2018-06-02T04:14:02.786Z,10.05
2018-06-02T04:16:30.331Z,9.60
2018-06-02T04:18:57.866Z,8.93
2018-06-02T04:21:25.417Z,9.95
2018-06-02T04:23:52.958Z,9.32
2018-06-02T04:26:21.292Z,10.10
2018-06-02T04:28:48.834Z,9.93
2018-06-02T04:31:16.389Z,9.18
2018-06-02T04:33:43.938Z,10.20
2018-06-02T04:36:11.485Z,9.10
2018-06-02T04:38:39.042Z,9.82
2018-06-02T04:41:06.573Z,9.05
2018-06-02T04:43:34.102Z,9.55
2018-06-02T04:46:01.640Z,8.77
2018-06-02T04:48:29.966Z,8.80
2018-06-02T04:50:57.506Z,8.48
2018-06-02T04:53:25.072Z,8.35
2018-06-02T04:55:52.645Z,7.55
2018-06-02T04:58:20.186Z,7.60
2018-06-02T05:00:48.491Z,7.43
2018-06-02T05:03:16.013Z,8.07
2018-06-02T05:05:43.551Z,7.32
2018-06-02T05:08:11.090Z,7.87
2018-06-02T05:10:38.621Z,7.25
2018-06-02T05:13:06.946Z,7.00
2018-06-02T05:15:34.508Z,7.55
2018-06-02T05:18:02.045Z,7.78
2018-06-02T05:20:29.582Z,8.30
2018-06-02T05:22:57.885Z,7.62
2018-06-02T05:25:26.189Z,9.25
2018-06-02T05:27:53.774Z,7.93
2018-06-02T05:30:21.303Z,8.90
2018-06-02T05:32:48.842Z,7.93
2018-06-02T05:35:17.190Z,7.80
2018-06-02T05:37:44.829Z,8.60
2018-06-02T05:40:12.366Z,8.43
2018-06-02T05:42:40.727Z,8.45
2018-06-02T05:45:09.050Z,6.82
2018-06-02T05:47:36.610Z,8.10
2018-06-02T05:50:04.183Z,8.38
2018-06-02T05:52:31.723Z,6.97
2018-06-02T05:55:00.226Z,7.90
2018-06-02T05:57:27.858Z,7.12
2018-06-02T05:59:56.224Z,6.85
2018-06-02T06:02:23.758Z,6.87
2018-06-02T06:04:51.304Z,7.20
2018-06-02T06:07:18.871Z,6.72
2018-06-02T06:09:46.416Z,7.15
2018-06-02T06:12:14.742Z,6.70
2018-06-02T06:14:42.279Z,6.15
2018-06-02T06:17:09.819Z,7.10
2018-06-02T06:19:37.481Z,7.07
2018-06-02T06:22:04.965Z,6.68
2018-06-02T06:24:32.510Z,6.30
2018-06-02T06:27:00.810Z,6.45
2018-06-02T06:29:28.342Z,6.90
2018-06-02T06:31:56.686Z,7.37
2018-06-02T06:34:24.301Z,7.15
2018-06-02T06:36:52.614Z,7.03
2018-06-02T06:39:20.168Z,6.20
2018-06-02T06:41:47.697Z,6.53
2018-06-02T06:44:15.225Z,6.22
2018-06-02T06:46:42.793Z,5.30
2018-06-02T06:49:10.350Z,5.37
2018-06-02T06:51:37.905Z,5.00
2018-06-02T06:54:05.442Z,4.87
2018-06-02T06:56:33.058Z,4.62
2018-06-02T06:59:00.606Z,4.78
2018-06-02T07:01:28.178Z,4.18
2018-06-02T07:03:55.719Z,4.32
2018-06-02T07:06:23.262Z,4.35
2018-06-02T07:08:50.822Z,3.85
2018-06-02T07:11:18.381Z,4.15
2018-06-02T07:13:45.955Z,4.30
2018-06-02T07:16:13.503Z,4.10
2018-06-02T07:18:41.101Z,4.03
2018-06-02T07:21:08.666Z,4.32
2018-06-02T07:23:36.235Z,5.30
2018-06-02T07:26:03.782Z,4.72
2018-06-02T07:28:31.358Z,4.32
2018-06-02T07:30:58.931Z,4.35
2018-06-02T07:33:26.493Z,4.70
2018-06-02T07:35:54.048Z,4.15
2018-06-02T07:38:21.597Z,4.63
2018-06-02T07:40:49.179Z,3.97
2018-06-02T07:43:16.750Z,3.73
2018-06-02T07:45:44.291Z,2.87
2018-06-02T07:48:12.795Z,3.47
2018-06-02T07:50:40.330Z,3.07
2018-06-02T07:53:07.898Z,3.20
2018-06-02T07:55:35.442Z,3.17
2018-06-02T07:58:02.984Z,2.43
2018-06-02T08:00:30.532Z,3.00
2018-06-02T08:02:58.071Z,3.23
2018-06-02T08:05:25.605Z,2.30
2018-06-02T08:07:53.939Z,2.50
2018-06-02T08:10:21.506Z,2.60
2018-06-02T08:12:49.070Z,2.43
2018-06-02T08:15:16.612Z,2.50
2018-06-02T08:17:44.174Z,2.90
2018-06-02T08:20:11.724Z,2.60
2018-06-02T08:22:39.286Z,2.43
2018-06-02T08:25:06.870Z,2.63
2018-06-02T08:27:35.512Z,2.67
2018-06-02T08:30:03.074Z,2.20
2018-06-02T08:32:30.634Z,2.97
2018-06-02T08:34:58.188Z,2.47
2018-06-02T08:37:25.735Z,2.23
2018-06-02T08:39:53.277Z,2.33
2018-06-02T08:42:20.854Z,2.97
2018-06-02T08:44:49.167Z,2.60
2018-06-02T08:47:16.719Z,2.73
2018-06-02T08:49:44.290Z,2.70
2018-06-02T08:52:11.848Z,2.40
2018-06-02T08:54:39.463Z,2.70
2018-06-02T08:57:07.021Z,3.00
2018-06-02T08:59:34.587Z,2.50
2018-06-02T09:02:02.163Z,2.80
2018-06-02T09:04:29.719Z,2.30
2018-06-02T09:06:57.281Z,1.90
2018-06-02T09:09:24.831Z,2.63
2018-06-02T09:11:53.163Z,2.30
2018-06-02T09:14:20.730Z,2.80
2018-06-02T09:16:48.275Z,2.27
2018-06-02T09:19:15.802Z,2.30
2018-06-02T09:21:44.183Z,2.50
2018-06-02T09:24:11.765Z,14.10
2018-06-02T09:26:39.315Z,2.73
2018-06-02T09:29:07.633Z,2.20
2018-06-02T09:31:35.178Z,2.70
2018-06-02T09:34:02.759Z,2.43
2018-06-02T09:36:30.309Z,2.30
2018-06-02T09:38:57.851Z,2.30
2018-06-02T09:41:26.155Z,2.20
2018-06-02T09:43:53.716Z,2.43
2018-06-02T09:46:21.279Z,2.57
2018-06-02T09:48:48.831Z,3.00
2018-06-02T09:51:17.139Z,2.37
2018-06-02T09:53:44.702Z,2.90
2018-06-02T09:56:12.264Z,2.80
2018-06-02T09:58:39.824Z,2.67
2018-06-02T10:01:07.356Z,2.90
2018-06-02T10:03:34.908Z,3.17
2018-06-02T10:06:02.450Z,2.47
2018-06-02T10:08:30.019Z,2.30
2018-06-02T10:10:57.570Z,2.37
2018-06-02T10:13:25.106Z,2.30
2018-06-02T10:15:52.639Z,2.13
2018-06-02T10:18:20.206Z,2.70
2018-06-02T10:20:47.778Z,1.90
2018-06-02T10:23:16.069Z,2.43
2018-06-02T10:25:44.424Z,2.60
2018-06-02T10:28:11.961Z,2.30
2018-06-02T10:30:39.495Z,2.40
2018-06-02T10:33:07.018Z,2.60
2018-06-02T10:35:34.625Z,2.10
2018-06-02T10:38:02.131Z,2.20
2018-06-02T10:40:29.706Z,2.23
2018-06-02T10:42:57.254Z,2.10
2018-06-02T10:45:24.824Z,1.93
2018-06-02T10:47:52.363Z,2.50
2018-06-02T10:50:19.913Z,2.23
2018-06-02T10:52:47.461Z,2.33
2018-06-02T10:55:15.031Z,2.37
2018-06-02T10:57:42.580Z,2.87
2018-06-02T11:00:10.160Z,2.27
2018-06-02T11:02:37.699Z,2.43
2018-06-02T11:05:06.013Z,2.93
2018-06-02T11:07:33.685Z,3.27
2018-06-02T11:10:01.252Z,2.97
2018-06-02T11:12:28.875Z,2.90
2018-06-02T11:14:57.194Z,3.13
2018-06-02T11:17:24.750Z,3.50
2018-06-02T11:19:52.310Z,3.10
2018-06-02T11:22:19.859Z,2.50
2018-06-02T11:24:48.167Z,3.13
2018-06-02T11:27:15.702Z,2.70
2018-06-02T11:29:44.023Z,3.27
2018-06-02T11:32:11.563Z,2.60
2018-06-02T11:34:39.139Z,3.27
2018-06-02T11:37:06.689Z,3.03
2018-06-02T11:39:34.237Z,5.20
2018-06-02T11:42:02.542Z,3.60
2018-06-02T11:44:30.093Z,3.40
2018-06-02T11:46:57.653Z,4.50
2018-06-02T11:49:25.185Z,3.27
2018-06-02T11:51:52.761Z,4.70
2018-06-02T11:54:20.403Z,3.80
2018-06-02T11:56:47.948Z,3.57
2018-06-02T11:59:15.499Z,4.60
2018-06-02T12:01:43.063Z,4.77
2018-06-02T12:04:10.596Z,5.00
2018-06-02T12:06:38.132Z,4.90
2018-06-02T12:09:05.681Z,5.27
2018-06-02T12:11:33.250Z,5.10
2018-06-02T12:14:00.804Z,5.83
2018-06-02T12:16:28.431Z,6.13
2018-06-02T12:18:55.972Z,6.53
2018-06-02T12:21:24.307Z,4.77
2018-06-02T12:23:51.883Z,6.30
2018-06-02T12:26:19.436Z,5.40
2018-06-02T12:28:47.004Z,6.13
2018-06-02T12:31:14.569Z,5.33
2018-06-02T12:33:42.125Z,5.50
2018-06-02T12:36:09.681Z,5.47
2018-06-02T12:38:37.223Z,7.20
2018-06-02T12:41:04.792Z,6.80
2018-06-02T12:43:32.352Z,6.80
2018-06-02T12:45:59.895Z,6.53
2018-06-02T12:48:28.220Z,6.40
2018-06-02T12:50:55.790Z,6.60
2018-06-02T12:53:23.432Z,6.80
2018-06-02T12:55:50.931Z,6.40
2018-06-02T12:58:18.494Z,5.50
2018-06-02T13:00:46.657Z,5.57
2018-06-02T13:03:15.211Z,6.03
2018-06-02T13:05:43.527Z,5.33
2018-06-02T13:08:11.076Z,6.27
2018-06-02T13:10:38.652Z,6.23
2018-06-02T13:13:06.285Z,6.63
2018-06-02T13:15:33.834Z,5.90
2018-06-02T13:18:01.402Z,6.47
2018-06-02T13:20:28.946Z,6.30
2018-06-02T13:22:56.512Z,6.03
2018-06-02T13:25:24.078Z,6.30
2018-06-02T13:27:51.630Z,6.60
2018-06-02T13:30:19.183Z,7.07
2018-06-02T13:32:46.751Z,6.73
2018-06-02T13:35:14.324Z,6.93
2018-06-02T13:37:41.894Z,6.50
2018-06-02T13:40:09.467Z,6.47
2018-06-02T13:42:37.026Z,6.37
2018-06-02T13:45:04.600Z,5.23
2018-06-02T13:47:32.161Z,6.93
2018-06-02T13:49:59.727Z,6.50
2018-06-02T13:52:27.278Z,7.03
2018-06-02T13:54:54.850Z,6.97
2018-06-02T13:57:22.409Z,7.27
2018-06-02T13:59:49.951Z,8.23
2018-06-02T14:02:17.485Z,6.97
2018-06-02T14:04:45.069Z,6.13
2018-06-02T14:07:12.619Z,7.00
2018-06-02T14:09:40.174Z,7.67
2018-06-02T14:12:07.708Z,7.20
2018-06-02T14:14:35.240Z,8.13
2018-06-02T14:17:02.770Z,9.17
2018-06-02T14:19:30.380Z,10.17
2018-06-02T14:21:57.950Z,9.47
2018-06-02T14:24:25.534Z,11.13
2018-06-02T14:26:53.870Z,11.67
2018-06-02T14:29:21.420Z,8.80
2018-06-02T14:31:48.966Z,10.80
2018-06-02T14:34:16.558Z,9.70
2018-06-02T14:36:44.108Z,10.60
2018-06-02T14:39:11.663Z,10.33
2018-06-02T14:41:39.240Z,10.17
2018-06-02T14:44:06.797Z,11.53
2018-06-02T14:46:34.343Z,13.10
2018-06-02T14:49:02.683Z,9.83
2018-06-02T14:51:30.229Z,12.27
2018-06-02T14:53:57.802Z,12.43
2018-06-02T14:56:25.387Z,11.20
2018-06-02T14:58:52.939Z,10.87
2018-06-02T15:01:20.491Z,10.80
2018-06-02T15:03:48.039Z,10.37
2018-06-02T15:06:15.609Z,11.20
2018-06-02T15:08:43.160Z,10.43
2018-06-02T15:11:10.714Z,10.70
2018-06-02T15:13:38.278Z,9.53
2018-06-02T15:16:05.900Z,10.20
2018-06-02T15:18:33.474Z,11.80
2018-06-02T15:21:01.051Z,12.03
2018-06-02T15:23:29.369Z,11.20
2018-06-02T15:25:56.939Z,10.23
2018-06-02T15:28:24.602Z,11.57
2018-06-02T15:30:52.136Z,11.40
2018-06-02T15:33:20.475Z,11.67
2018-06-02T15:35:48.045Z,9.70
2018-06-02T15:38:15.590Z,11.00
2018-06-02T15:40:43.139Z,10.40
2018-06-02T15:43:10.719Z,11.30
2018-06-02T15:45:38.307Z,11.30
2018-06-02T15:48:05.892Z,9.87
2018-06-02T15:50:34.199Z,10.43
2018-06-02T15:53:01.733Z,8.40
2018-06-02T15:55:29.347Z,9.50
2018-06-02T15:57:56.915Z,10.03
2018-06-02T16:00:24.467Z,8.60
2018-06-02T16:02:52.010Z,9.27
2018-06-02T16:05:20.322Z,9.33
2018-06-02T16:07:48.089Z,8.73
2018-06-02T16:10:15.621Z,9.23
2018-06-02T16:12:43.953Z,10.07
2018-06-02T16:15:11.566Z,10.17
2018-06-02T16:17:39.898Z,9.10
2018-06-02T16:20:07.443Z,8.70
2018-06-02T16:22:34.986Z,10.37
2018-06-02T16:25:02.555Z,9.37
2018-06-02T16:27:30.092Z,10.40
2018-06-02T16:29:58.392Z,10.37
2018-06-02T16:32:26.698Z,9.50
2018-06-02T16:34:54.266Z,10.30
2018-06-02T16:37:21.828Z,9.27
2018-06-02T16:39:49.385Z,8.67
2018-06-02T16:42:16.958Z,8.83
2018-06-02T16:44:44.502Z,9.87
2018-06-02T16:47:12.096Z,8.60
2018-06-02T16:49:39.617Z,9.13
2018-06-02T16:52:07.917Z,10.23
2018-06-02T16:54:35.462Z,9.80
2018-06-02T16:57:03.794Z,11.07
2018-06-02T16:59:31.370Z,11.57
2018-06-02T17:01:58.922Z,12.40
2018-06-02T17:04:26.489Z,14.77
2018-06-02T17:06:54.039Z,17.70
2018-06-02T17:09:21.572Z,17.97
2018-06-02T17:11:49.133Z,18.03
2018-06-02T17:14:16.677Z,17.73
2018-06-02T17:16:44.998Z,17.20
2018-06-02T17:19:12.566Z,16.63
2018-06-02T17:21:40.126Z,17.93
2018-06-02T17:24:07.694Z,18.57
2018-06-02T17:26:35.268Z,17.60
2018-06-02T17:29:02.827Z,17.87
2018-06-02T17:31:30.378Z,20.77
2018-06-02T17:33:57.937Z,17.37
2018-06-02T17:36:25.480Z,18.30
2018-06-02T17:38:53.814Z,17.40
2018-06-02T17:41:21.354Z,16.37
2018-06-02T17:43:48.895Z,17.63
2018-06-02T17:46:17.237Z,15.20
2018-06-02T17:48:44.774Z,13.47
2018-06-02T17:51:12.323Z,14.07
2018-06-02T17:53:39.909Z,12.77
2018-06-02T17:56:07.463Z,13.73
2018-06-02T17:58:35.033Z,12.83
2018-06-02T18:01:02.657Z,14.27
2018-06-02T18:03:30.961Z,12.33
2018-06-02T18:05:58.501Z,11.70
2018-06-02T18:08:26.833Z,12.17
2018-06-02T18:10:54.382Z,11.77
2018-06-02T18:13:21.955Z,13.43
2018-06-02T18:15:49.534Z,13.23
2018-06-02T18:18:17.112Z,12.83
2018-06-02T18:20:44.675Z,10.80
2018-06-02T18:23:12.260Z,13.03
2018-06-02T18:25:40.615Z,12.40
2018-06-02T18:28:08.188Z,11.60
2018-06-02T18:30:35.767Z,12.90
2018-06-02T18:33:03.339Z,12.73
2018-06-02T18:35:31.658Z,13.10
2018-06-02T18:37:59.202Z,13.23
2018-06-02T18:40:27.609Z,13.13
2018-06-02T18:42:55.621Z,14.20
2018-06-02T18:45:23.157Z,13.30
2018-06-02T18:47:50.721Z,12.37
2018-06-02T18:50:18.290Z,12.03
2018-06-02T18:52:45.834Z,14.30
2018-06-02T18:55:13.377Z,12.07
2018-06-02T18:57:40.922Z,11.57
2018-06-02T19:00:09.245Z,11.00
2018-06-02T19:02:36.792Z,13.70
2018-06-02T19:05:04.370Z,14.70
2018-06-02T19:07:31.941Z,13.50
2018-06-02T19:09:59.531Z,14.10
2018-06-02T19:12:27.071Z,13.80
2018-06-02T19:14:54.619Z,14.23
2018-06-02T19:17:22.210Z,11.20
2018-06-02T19:19:49.786Z,11.80
2018-06-02T19:22:17.329Z,13.40
2018-06-02T19:24:44.926Z,11.90
2018-06-02T19:27:12.543Z,13.33
2018-06-02T19:29:40.126Z,14.53
2018-06-02T19:32:07.674Z,14.80
2018-06-02T19:34:35.233Z,12.10
2018-06-02T19:37:02.801Z,12.60
2018-06-02T19:39:30.369Z,12.23
2018-06-02T19:41:57.918Z,13.10
2018-06-02T19:44:26.231Z,14.47
2018-06-02T19:46:53.815Z,14.80
2018-06-02T19:49:58.703Z,14.10
2018-06-02T19:52:27.210Z,13.88
2018-06-02T19:54:55.721Z,12.80
2018-06-02T19:57:24.298Z,12.77
2018-06-02T19:59:52.905Z,14.40
2018-06-02T20:02:21.424Z,13.73
2018-06-02T20:04:50.006Z,14.63
2018-06-02T20:07:18.602Z,16.15
2018-06-02T20:09:47.160Z,15.17
2018-06-02T20:12:15.723Z,13.93
2018-06-02T20:14:44.370Z,17.17
2018-06-02T20:17:12.865Z,14.40
2018-06-02T20:19:41.419Z,14.87
2018-06-02T20:22:09.953Z,16.25
2018-06-02T20:24:38.531Z,16.00
2018-06-02T20:27:07.148Z,15.80
2018-06-02T20:29:35.699Z,15.10
2018-06-02T20:32:04.274Z,18.00
2018-06-02T20:34:32.926Z,15.80
2018-06-02T20:37:01.498Z,13.72
2018-06-02T20:39:30.051Z,14.58
2018-06-02T20:41:58.580Z,17.48
2018-06-02T20:44:27.123Z,18.17
2018-06-02T20:46:55.731Z,19.55
2018-06-02T20:49:24.297Z,16.27
2018-06-02T20:51:52.856Z,15.05
2018-06-02T20:54:21.355Z,16.62
2018-06-02T20:56:49.896Z,16.23
2018-06-02T20:59:18.449Z,16.97
2018-06-02T21:01:47.055Z,17.07
2018-06-02T21:04:15.619Z,16.65
2018-06-02T21:06:44.275Z,17.17
2018-06-02T21:09:12.933Z,16.27
2018-06-02T21:11:41.472Z,15.60
2018-06-02T21:14:10.005Z,14.75
2018-06-02T21:16:38.527Z,18.50
2018-06-02T21:19:07.051Z,16.62
2018-06-02T21:21:35.615Z,18.27
2018-06-02T21:24:04.163Z,17.85
2018-06-02T21:26:32.732Z,18.90
2018-06-02T21:29:01.267Z,19.42
2018-06-02T21:31:29.794Z,19.23
2018-06-02T21:33:58.324Z,17.50
2018-06-02T21:36:26.877Z,18.80
2018-06-02T21:38:55.445Z,18.55
2018-06-02T21:41:23.966Z,18.20
2018-06-02T21:43:52.515Z,17.52
2018-06-02T21:46:21.062Z,18.45
2018-06-02T21:48:49.579Z,15.90
2018-06-02T21:51:18.376Z,18.30
2018-06-02T21:53:46.653Z,18.85
2018-06-02T21:56:15.167Z,18.27
2018-06-02T21:58:43.711Z,15.20
2018-06-02T22:01:12.325Z,15.93
2018-06-02T22:03:40.923Z,16.45
2018-06-02T22:06:09.435Z,16.82
2018-06-02T22:08:38.037Z,18.10
2018-06-02T22:11:06.646Z,16.97
2018-06-02T22:13:35.291Z,17.95
2018-06-02T22:16:03.915Z,17.40
2018-06-02T22:18:32.431Z,15.35
2018-06-02T22:21:00.950Z,14.47
2018-06-02T22:23:29.495Z,15.40
2018-06-02T22:25:58.035Z,16.62
2018-06-02T22:28:26.557Z,14.10
2018-06-02T22:30:55.132Z,17.17
2018-06-02T22:33:23.655Z,14.83
2018-06-02T22:35:52.185Z,16.80
2018-06-02T22:38:20.780Z,15.75
2018-06-02T22:40:49.370Z,17.25
2018-06-02T22:43:17.895Z,16.07
2018-06-02T22:45:46.430Z,17.25
2018-06-02T22:48:14.966Z,15.53
2018-06-02T22:50:43.481Z,17.65
2018-06-02T22:53:12.096Z,17.15
2018-06-02T22:55:40.779Z,17.17
2018-06-02T22:58:09.408Z,16.37
2018-06-02T23:00:38.048Z,16.65
2018-06-02T23:03:06.602Z,19.02
2018-06-02T23:05:35.215Z,18.20
2018-06-02T23:08:03.829Z,19.15
2018-06-02T23:10:32.415Z,15.35
2018-06-02T23:13:00.960Z,15.88
2018-06-02T23:15:29.505Z,20.20
2018-06-02T23:17:58.027Z,16.00
2018-06-02T23:20:26.602Z,19.62
2018-06-02T23:22:55.117Z,18.60
2018-06-02T23:25:23.655Z,19.55
2018-06-02T23:27:52.181Z,21.10
2018-06-02T23:30:20.687Z,21.57
2018-06-02T23:32:49.203Z,21.37
2018-06-02T23:35:17.734Z,19.85
2018-06-02T23:37:46.259Z,19.57
2018-06-02T23:40:14.774Z,23.02
2018-06-02T23:42:43.278Z,21.75
2018-06-02T23:45:11.827Z,24.87
2018-06-02T23:47:40.351Z,24.82
2018-06-02T23:50:08.894Z,19.32
2018-06-02T23:52:37.423Z,22.80
2018-06-02T23:55:05.987Z,22.07
2018-06-02T23:57:34.504Z,20.80
